Time;durP1;ratioP1;P1;durP2;ratioP2;P2;SDS_P1;SDS_P2;PMS_P1;PMS_P2;Temp;Humidity;BMP_temperature;BMP_pressure;BME280_temperature;BME280_humidity;BME280_pressure;Samples;Min_cycle;Max_cycle;Signal;HPM_P1;HPM_P2
2023/09/30 00:02:30;;;;;;;11.95;5.93;;;;;;;;;;6239177;22;20217;-93
2023/09/30 00:05:35;;;;;;;13.18;6.47;;;;;;;;;;6239927;22;20166;-93
2023/09/30 00:08:41;;;;;;;10.65;6.03;;;;;;;;;;6241697;22;20213;-93
2023/09/30 00:11:47;;;;;;;12.00;6.07;;;;;;;;;;6240158;22;20892;-94
2023/09/30 00:14:52;;;;;;;14.73;6.15;;;;;;;;;;6239977;22;20194;-93
2023/09/30 00:20:54;;;;;;;12.15;6.15;;;;;;;;;;6220358;22;20208;-91
2023/09/30 00:23:59;;;;;;;12.57;5.88;;;;;;;;;;6239503;22;20174;-92
2023/09/30 00:27:04;;;;;;;13.80;6.10;;;;;;;;;;6241395;22;20206;-93
2023/09/30 00:30:10;;;;;;;10.45;5.90;;;;;;;;;;6240296;22;20189;-94
2023/09/30 00:33:15;;;;;;;12.98;6.18;;;;;;;;;;6240272;22;20190;-93
2023/09/30 00:36:22;;;;;;;12.93;6.60;;;;;;;;;;6240482;23;20150;-92
2023/09/30 00:39:29;;;;;;;14.52;6.63;;;;;;;;;;6240909;22;20162;-94
2023/09/30 00:42:35;;;;;;;12.82;6.35;;;;;;;;;;6241981;23;20241;-93
2023/09/30 00:45:39;;;;;;;11.52;5.72;;;;;;;;;;6241516;22;20193;-93
2023/09/30 00:48:46;;;;;;;12.90;5.47;;;;;;;;;;6240927;23;20161;-93
2023/09/30 00:51:54;;;;;;;22.88;6.78;;;;;;;;;;6240879;22;20272;-93
2023/09/30 00:54:59;;;;;;;13.52;6.28;;;;;;;;;;6240296;22;20217;-93
2023/09/30 00:58:04;;;;;;;10.73;6.25;;;;;;;;;;6241755;23;20166;-93
2023/09/30 01:01:11;;;;;;;10.65;5.88;;;;;;;;;;6240509;23;20166;-92
2023/09/30 01:04:16;;;;;;;11.30;5.70;;;;;;;;;;6240527;23;20174;-92
2023/09/30 01:07:22;;;;;;;11.32;6.22;;;;;;;;;;6240887;22;20622;-93
2023/09/30 01:10:28;;;;;;;12.10;6.18;;;;;;;;;;6241626;22;20166;-93
2023/09/30 01:13:34;;;;;;;11.13;5.70;;;;;;;;;;6242661;22;20189;-92
2023/09/30 01:16:39;;;;;;;11.45;6.28;;;;;;;;;;6240704;23;20517;-93
2023/09/30 01:19:45;;;;;;;10.70;5.95;;;;;;;;;;6240230;22;20165;-93
2023/09/30 01:22:51;;;;;;;16.33;6.90;;;;;;;;;;6241112;22;20170;-92
2023/09/30 01:25:57;;;;;;;16.67;6.78;;;;;;;;;;6241510;22;20503;-94
2023/09/30 01:29:02;;;;;;;15.95;6.45;;;;;;;;;;6241958;22;20618;-94
2023/09/30 01:32:08;;;;;;;12.15;5.80;;;;;;;;;;6240205;22;20163;-94
2023/09/30 01:35:14;;;;;;;13.98;6.93;;;;;;;;;;6238979;22;20175;-92
2023/09/30 01:38:21;;;;;;;19.42;7.00;;;;;;;;;;6241009;22;20289;-94
2023/09/30 01:41:25;;;;;;;17.70;7.45;;;;;;;;;;6240247;22;20201;-92
2023/09/30 01:44:32;;;;;;;20.08;7.75;;;;;;;;;;6242494;22;20499;-93
2023/09/30 01:47:37;;;;;;;24.35;8.88;;;;;;;;;;6239877;23;20162;-91
2023/09/30 01:50:42;;;;;;;32.20;9.18;;;;;;;;;;6240945;22;20210;-93
2023/09/30 01:53:49;;;;;;;27.15;9.40;;;;;;;;;;6240683;22;20193;-92
2023/09/30 01:56:56;;;;;;;25.77;8.98;;;;;;;;;;6241412;22;20170;-93
2023/09/30 02:00:01;;;;;;;31.17;9.95;;;;;;;;;;6241167;22;20167;-91
2023/09/30 02:03:06;;;;;;;26.42;9.25;;;;;;;;;;6241394;22;20162;-92
2023/09/30 02:06:12;;;;;;;29.27;9.63;;;;;;;;;;6241724;22;20166;-94
2023/09/30 02:09:19;;;;;;;36.63;9.82;;;;;;;;;;6241218;22;20614;-92
2023/09/30 02:12:25;;;;;;;32.88;10.07;;;;;;;;;;6241230;23;20192;-92
2023/09/30 02:15:30;;;;;;;33.10;10.52;;;;;;;;;;6241952;23;20181;-93
2023/09/30 02:18:35;;;;;;;33.08;10.15;;;;;;;;;;6242454;22;20170;-93
2023/09/30 02:21:40;;;;;;;32.65;10.15;;;;;;;;;;6242811;22;20186;-94
2023/09/30 02:24:48;;;;;;;34.88;10.32;;;;;;;;;;6240592;22;20170;-91
2023/09/30 02:27:53;;;;;;;36.17;10.13;;;;;;;;;;6241961;23;20166;-91
2023/09/30 02:30:59;;;;;;;34.75;9.93;;;;;;;;;;6240109;22;20162;-92
2023/09/30 02:34:04;;;;;;;35.47;10.20;;;;;;;;;;6241404;22;20182;-92
2023/09/30 02:37:10;;;;;;;32.63;9.27;;;;;;;;;;6240364;22;20498;-93
2023/09/30 02:40:17;;;;;;;32.17;9.90;;;;;;;;;;6240678;22;20545;-91
2023/09/30 02:43:22;;;;;;;28.20;9.32;;;;;;;;;;6241076;23;20162;-91
2023/09/30 02:46:28;;;;;;;33.25;10.65;;;;;;;;;;6239146;22;20167;-92
2023/09/30 02:49:34;;;;;;;33.53;9.40;;;;;;;;;;6240504;23;20174;-93
2023/09/30 02:52:40;;;;;;;35.15;9.73;;;;;;;;;;6239971;22;20170;-92
2023/09/30 02:55:46;;;;;;;30.92;9.57;;;;;;;;;;6239977;23;20254;-92
2023/09/30 02:58:53;;;;;;;29.60;8.98;;;;;;;;;;6245815;22;20167;-92
2023/09/30 03:01:58;;;;;;;29.95;9.00;;;;;;;;;;6240330;22;20182;-91
2023/09/30 03:05:03;;;;;;;29.60;9.65;;;;;;;;;;6241011;22;20225;-92
2023/09/30 03:08:08;;;;;;;32.80;8.75;;;;;;;;;;6240974;23;20162;-91
2023/09/30 03:11:15;;;;;;;32.13;9.25;;;;;;;;;;6241116;22;20205;-92
2023/09/30 03:14:20;;;;;;;30.40;9.85;;;;;;;;;;6239883;22;20264;-91
2023/09/30 03:17:25;;;;;;;33.15;9.52;;;;;;;;;;6239525;22;20151;-92
2023/09/30 03:20:31;;;;;;;30.63;8.60;;;;;;;;;;6240137;22;20190;-92
2023/09/30 03:23:38;;;;;;;32.95;9.25;;;;;;;;;;6259083;22;20294;-92
2023/09/30 03:26:45;;;;;;;25.83;8.23;;;;;;;;;;6240189;23;20167;-92
2023/09/30 03:29:50;;;;;;;29.77;9.18;;;;;;;;;;6237440;23;20167;-91
2023/09/30 03:32:55;;;;;;;32.08;9.95;;;;;;;;;;6239495;22;20226;-92
2023/09/30 03:36:00;;;;;;;31.95;9.88;;;;;;;;;;6239705;22;20229;-92
2023/09/30 03:39:08;;;;;;;37.00;10.00;;;;;;;;;;6240452;22;20648;-93
2023/09/30 03:42:14;;;;;;;32.50;10.05;;;;;;;;;;6239238;22;20166;-93
2023/09/30 03:45:19;;;;;;;30.52;9.45;;;;;;;;;;6239412;22;20194;-91
2023/09/30 03:48:24;;;;;;;33.83;10.27;;;;;;;;;;6241580;22;20159;-93
2023/09/30 03:51:30;;;;;;;34.00;11.10;;;;;;;;;;6240432;22;20207;-93
2023/09/30 03:54:35;;;;;;;31.50;10.32;;;;;;;;;;6242296;23;20173;-92
2023/09/30 03:57:41;;;;;;;33.00;10.23;;;;;;;;;;6242893;22;20458;-92
2023/09/30 04:00:49;;;;;;;33.60;10.45;;;;;;;;;;6242529;23;20166;-92
2023/09/30 04:03:56;;;;;;;32.60;9.88;;;;;;;;;;6242608;22;20170;-94
2023/09/30 04:07:02;;;;;;;28.98;9.00;;;;;;;;;;6245755;23;20170;-91
2023/09/30 04:10:11;;;;;;;32.30;9.88;;;;;;;;;;6243971;22;20175;-93
2023/09/30 04:13:20;;;;;;;34.55;10.23;;;;;;;;;;6241207;22;20158;-93
2023/09/30 04:16:28;;;;;;;38.42;10.00;;;;;;;;;;6240512;23;20155;-93
2023/09/30 04:19:34;;;;;;;29.00;9.65;;;;;;;;;;6240757;22;20167;-93
2023/09/30 04:22:39;;;;;;;31.63;9.18;;;;;;;;;;6240386;23;20194;-93
2023/09/30 04:25:46;;;;;;;24.63;8.75;;;;;;;;;;6240645;22;20310;-91
2023/09/30 04:28:53;;;;;;;29.05;9.63;;;;;;;;;;6239440;22;20170;-92
2023/09/30 04:31:58;;;;;;;27.05;8.90;;;;;;;;;;6241289;22;20613;-91
2023/09/30 04:35:03;;;;;;;27.65;9.10;;;;;;;;;;6245410;22;20193;-92
2023/09/30 04:38:13;;;;;;;25.88;8.45;;;;;;;;;;6243591;22;20262;-94
2023/09/30 04:41:18;;;;;;;28.83;8.90;;;;;;;;;;6243393;23;20206;-93
2023/09/30 04:44:29;;;;;;;28.92;8.18;;;;;;;;;;6243041;23;20225;-92
2023/09/30 04:47:33;;;;;;;32.10;9.75;;;;;;;;;;6243626;22;20241;-92
2023/09/30 04:50:41;;;;;;;30.67;9.65;;;;;;;;;;6243709;23;20167;-93
2023/09/30 04:53:46;;;;;;;30.35;8.70;;;;;;;;;;6242344;22;20721;-94
2023/09/30 04:56:52;;;;;;;25.67;8.40;;;;;;;;;;6242800;23;20174;-92
2023/09/30 04:59:59;;;;;;;28.83;9.05;;;;;;;;;;6243213;22;20166;-93
2023/09/30 05:03:04;;;;;;;34.10;9.10;;;;;;;;;;6244564;22;20213;-94
2023/09/30 05:06:10;;;;;;;31.13;8.70;;;;;;;;;;6244356;22;20170;-93
2023/09/30 05:09:15;;;;;;;31.27;9.15;;;;;;;;;;6243795;23;20170;-93
2023/09/30 05:12:20;;;;;;;33.95;9.40;;;;;;;;;;6243667;22;20236;-93
2023/09/30 05:15:29;;;;;;;29.55;8.43;;;;;;;;;;6243972;22;20295;-91
2023/09/30 05:18:34;;;;;;;24.83;9.00;;;;;;;;;;6246332;22;20195;-91
2023/09/30 05:21:39;;;;;;;25.90;8.63;;;;;;;;;;6242365;23;20185;-90
2023/09/30 05:24:44;;;;;;;23.48;8.15;;;;;;;;;;6244535;22;20158;-91
2023/09/30 05:27:49;;;;;;;30.30;8.65;;;;;;;;;;6241518;22;20162;-92
2023/09/30 05:30:56;;;;;;;25.08;8.50;;;;;;;;;;6243859;22;20166;-93
2023/09/30 05:34:02;;;;;;;30.17;9.50;;;;;;;;;;6248009;22;20166;-92
2023/09/30 05:37:07;;;;;;;25.98;8.32;;;;;;;;;;6242767;23;20171;-93
2023/09/30 05:40:21;;;;;;;33.30;8.88;;;;;;;;;;6242197;23;20194;-93
2023/09/30 05:43:27;;;;;;;31.52;9.30;;;;;;;;;;6241514;22;20159;-95
2023/09/30 05:46:33;;;;;;;27.98;9.43;;;;;;;;;;6244096;23;20174;-94
2023/09/30 05:49:38;;;;;;;28.80;8.57;;;;;;;;;;6241900;23;20167;-93
2023/09/30 05:52:44;;;;;;;31.10;9.18;;;;;;;;;;6240771;22;20162;-93
2023/09/30 05:55:50;;;;;;;28.42;8.55;;;;;;;;;;6241999;23;20190;-93
2023/09/30 05:58:55;;;;;;;27.42;9.07;;;;;;;;;;6242510;22;20170;-92
2023/09/30 06:02:03;;;;;;;26.27;8.20;;;;;;;;;;6244134;23;20178;-91
2023/09/30 06:05:08;;;;;;;29.15;9.32;;;;;;;;;;6243441;22;20174;-91
2023/09/30 06:08:14;;;;;;;27.95;8.45;;;;;;;;;;6241254;23;20158;-92
2023/09/30 06:11:24;;;;;;;27.63;8.27;;;;;;;;;;6241893;22;20281;-95
2023/09/30 06:14:31;;;;;;;32.38;9.95;;;;;;;;;;6245904;22;20167;-90
2023/09/30 06:17:38;;;;;;;31.48;9.50;;;;;;;;;;6241289;22;20166;-92
2023/09/30 06:20:43;;;;;;;28.45;9.40;;;;;;;;;;6240935;22;20170;-92
2023/09/30 06:23:48;;;;;;;27.77;9.73;;;;;;;;;;6243323;23;20170;-92
2023/09/30 06:26:54;;;;;;;32.75;10.00;;;;;;;;;;6242742;23;20170;-93
2023/09/30 06:29:59;;;;;;;25.30;8.93;;;;;;;;;;6242147;22;20206;-94
2023/09/30 06:33:07;;;;;;;30.23;10.10;;;;;;;;;;6243113;22;20186;-93
2023/09/30 06:36:13;;;;;;;33.10;10.40;;;;;;;;;;6248169;22;20268;-94
2023/09/30 06:39:19;;;;;;;28.38;9.43;;;;;;;;;;6241834;23;20553;-93
2023/09/30 06:42:24;;;;;;;29.27;9.27;;;;;;;;;;6241602;23;20281;-94
2023/09/30 06:45:29;;;;;;;32.08;10.25;;;;;;;;;;6242539;23;20241;-93
2023/09/30 06:48:36;;;;;;;27.55;8.85;;;;;;;;;;6244962;22;20169;-93
2023/09/30 06:51:41;;;;;;;29.55;10.05;;;;;;;;;;6243499;22;20166;-94
2023/09/30 06:54:47;;;;;;;33.30;10.30;;;;;;;;;;6243102;22;20151;-94
2023/09/30 06:57:52;;;;;;;31.42;9.90;;;;;;;;;;6244796;22;20170;-91
2023/09/30 07:00:57;;;;;;;29.02;8.75;;;;;;;;;;6244118;22;20527;-93
2023/09/30 07:04:06;;;;;;;32.58;9.43;;;;;;;;;;6244381;22;20188;-94
2023/09/30 07:07:12;;;;;;;27.30;10.15;;;;;;;;;;6244694;22;20166;-92
2023/09/30 07:10:17;;;;;;;25.10;9.20;;;;;;;;;;6244918;22;20146;-94
2023/09/30 07:13:22;;;;;;;31.33;9.20;;;;;;;;;;6242590;22;20250;-93
2023/09/30 07:16:27;;;;;;;25.88;8.93;;;;;;;;;;6242086;22;20265;-93
2023/09/30 07:19:34;;;;;;;32.00;9.73;;;;;;;;;;6243643;22;20162;-94
2023/09/30 07:22:40;;;;;;;25.70;8.48;;;;;;;;;;6245166;22;20185;-93
2023/09/30 07:25:46;;;;;;;34.60;11.02;;;;;;;;;;6243104;22;20165;-95
2023/09/30 07:28:51;;;;;;;27.70;9.00;;;;;;;;;;6242036;22;20209;-92
2023/09/30 07:31:56;;;;;;;29.40;9.73;;;;;;;;;;6244264;23;20170;-93
2023/09/30 07:35:05;;;;;;;29.58;9.13;;;;;;;;;;6246861;22;20177;-93
2023/09/30 07:38:10;;;;;;;26.75;8.38;;;;;;;;;;6246819;22;20190;-94
2023/09/30 07:41:17;;;;;;;25.95;8.18;;;;;;;;;;6243651;22;20166;-94
2023/09/30 07:44:23;;;;;;;20.88;7.90;;;;;;;;;;6244053;22;20190;-95
2023/09/30 07:47:30;;;;;;;21.33;7.18;;;;;;;;;;6244560;22;20165;-95
2023/09/30 07:50:42;;;;;;;21.55;6.63;;;;;;;;;;6245545;23;20166;-95
2023/09/30 07:53:47;;;;;;;18.08;5.93;;;;;;;;;;6247940;22;20166;-93
2023/09/30 07:56:53;;;;;;;21.35;6.13;;;;;;;;;;6244058;22;20218;-95
2023/09/30 07:59:58;;;;;;;17.38;5.30;;;;;;;;;;6244232;22;20175;-95
2023/09/30 08:03:04;;;;;;;19.90;5.93;;;;;;;;;;6242426;23;20167;-93
2023/09/30 08:06:11;;;;;;;15.90;5.30;;;;;;;;;;6242533;22;20171;-94
2023/09/30 08:09:19;;;;;;;14.48;5.28;;;;;;;;;;6246467;22;20510;-92
2023/09/30 08:12:24;;;;;;;15.75;5.40;;;;;;;;;;6245598;22;20192;-94
2023/09/30 08:15:30;;;;;;;14.80;4.88;;;;;;;;;;6245632;22;20173;-94
2023/09/30 08:18:35;;;;;;;15.38;5.30;;;;;;;;;;6243592;23;20162;-95
2023/09/30 08:21:43;;;;;;;18.13;4.88;;;;;;;;;;6243159;22;20182;-91
2023/09/30 08:24:47;;;;;;;14.68;4.93;;;;;;;;;;6242669;23;20227;-92
2023/09/30 08:27:54;;;;;;;17.40;5.45;;;;;;;;;;6241313;22;20174;-90
2023/09/30 08:35:04;;;;;;;17.05;5.70;;;;;;;;;;6262744;22;20233;-92
2023/09/30 08:38:11;;;;;;;17.30;5.70;;;;;;;;;;6241958;22;20166;-92
2023/09/30 08:41:27;;;;;;;15.88;5.28;;;;;;;;;;6242668;22;20169;-91
2023/09/30 08:44:32;;;;;;;14.00;5.25;;;;;;;;;;6240526;22;20166;-92
2023/09/30 08:47:39;;;;;;;18.85;5.72;;;;;;;;;;6243023;22;20165;-91
2023/09/30 08:50:48;;;;;;;13.52;5.13;;;;;;;;;;6242265;23;20239;-91
2023/09/30 08:53:58;;;;;;;14.98;5.38;;;;;;;;;;6241499;22;20492;-90
2023/09/30 08:57:04;;;;;;;17.40;6.22;;;;;;;;;;6241641;22;20218;-91
2023/09/30 09:00:12;;;;;;;20.15;5.93;;;;;;;;;;6242102;22;20150;-91
2023/09/30 09:03:18;;;;;;;18.95;5.30;;;;;;;;;;6242366;23;20673;-89
2023/09/30 09:06:23;;;;;;;17.13;5.35;;;;;;;;;;6242712;23;20151;-91
2023/09/30 09:09:35;;;;;;;20.77;5.75;;;;;;;;;;6244171;23;20170;-90
2023/09/30 09:12:47;;;;;;;18.48;6.00;;;;;;;;;;6241142;23;20167;-91
2023/09/30 09:16:07;;;;;;;19.13;5.43;;;;;;;;;;6242195;23;20191;-91
2023/09/30 09:22:42;;;;;;;22.30;6.80;;;;;;;;;;6243852;22;20721;-91
2023/09/30 09:25:51;;;;;;;16.60;6.15;;;;;;;;;;6247984;22;20164;-92
2023/09/30 09:29:00;;;;;;;17.02;5.88;;;;;;;;;;6245356;23;20230;-92
2023/09/30 09:32:09;;;;;;;20.63;6.00;;;;;;;;;;6247023;23;20555;-90
2023/09/30 09:35:14;;;;;;;19.05;5.55;;;;;;;;;;6242759;22;20492;-90
2023/09/30 09:38:24;;;;;;;18.13;5.85;;;;;;;;;;6245438;22;20227;-89
2023/09/30 09:41:34;;;;;;;16.27;5.47;;;;;;;;;;6243878;22;20167;-93
2023/09/30 09:44:40;;;;;;;18.52;5.95;;;;;;;;;;6243697;23;20163;-91
2023/09/30 09:47:45;;;;;;;18.30;5.75;;;;;;;;;;6242698;22;20170;-88
2023/09/30 09:50:51;;;;;;;16.63;5.43;;;;;;;;;;6239101;22;20282;-89
2023/09/30 09:53:56;;;;;;;20.25;5.72;;;;;;;;;;6243353;22;20151;-93
2023/09/30 09:57:04;;;;;;;19.48;5.70;;;;;;;;;;6241314;23;20276;-91
2023/09/30 10:00:14;;;;;;;15.85;5.20;;;;;;;;;;6242313;23;20170;-90
2023/09/30 10:03:19;;;;;;;15.95;5.53;;;;;;;;;;6242184;23;20167;-91
2023/09/30 10:06:25;;;;;;;16.15;5.40;;;;;;;;;;6243919;22;20269;-92
2023/09/30 10:09:32;;;;;;;15.48;5.10;;;;;;;;;;6243174;22;20209;-92
2023/09/30 10:12:40;;;;;;;17.70;4.72;;;;;;;;;;6243128;22;20241;-91
2023/09/30 10:15:44;;;;;;;17.85;5.28;;;;;;;;;;6244731;22;20497;-90
2023/09/30 10:19:08;;;;;;;13.15;4.68;;;;;;;;;;6241857;22;20166;-91
2023/09/30 10:22:23;;;;;;;14.40;4.60;;;;;;;;;;6242889;22;20190;-90
2023/09/30 10:25:35;;;;;;;15.88;4.80;;;;;;;;;;6243373;23;20688;-92
2023/09/30 10:28:44;;;;;;;15.45;5.28;;;;;;;;;;6241145;23;20294;-90
2023/09/30 10:31:52;;;;;;;13.90;4.50;;;;;;;;;;6240248;23;20231;-91
2023/09/30 10:34:57;;;;;;;12.57;4.93;;;;;;;;;;6244659;22;20202;-92
2023/09/30 10:38:18;;;;;;;12.90;4.70;;;;;;;;;;6245422;23;20530;-90
2023/09/30 10:41:39;;;;;;;14.40;4.55;;;;;;;;;;6241436;22;20167;-93
2023/09/30 10:44:46;;;;;;;13.57;4.88;;;;;;;;;;6242343;22;20210;-92
2023/09/30 10:47:51;;;;;;;15.82;5.30;;;;;;;;;;6241658;22;20167;-91
2023/09/30 10:50:58;;;;;;;16.98;4.85;;;;;;;;;;6244555;22;20185;-94
2023/09/30 10:57:33;;;;;;;12.18;4.57;;;;;;;;;;6243515;23;20198;-92
2023/09/30 11:00:41;;;;;;;11.93;4.50;;;;;;;;;;6242841;22;20614;-90
2023/09/30 11:03:49;;;;;;;15.32;4.75;;;;;;;;;;6243226;22;20170;-92
2023/09/30 11:06:54;;;;;;;15.88;4.82;;;;;;;;;;6242723;22;20171;-91
2023/09/30 11:10:02;;;;;;;12.45;4.53;;;;;;;;;;6244754;22;20166;-90
2023/09/30 11:13:07;;;;;;;14.63;4.93;;;;;;;;;;6245036;22;20174;-91
2023/09/30 11:16:17;;;;;;;12.77;4.75;;;;;;;;;;6243398;22;20182;-91
2023/09/30 11:19:23;;;;;;;15.60;4.40;;;;;;;;;;6243427;22;20182;-89
2023/09/30 11:22:29;;;;;;;17.63;6.15;;;;;;;;;;6242296;23;20266;-90
2023/09/30 11:25:37;;;;;;;14.27;4.85;;;;;;;;;;6243185;22;20170;-89
2023/09/30 11:28:44;;;;;;;14.70;5.65;;;;;;;;;;6241828;22;20170;-90
2023/09/30 11:31:51;;;;;;;12.52;4.65;;;;;;;;;;6242725;22;20170;-89
2023/09/30 11:34:57;;;;;;;18.27;4.95;;;;;;;;;;6224738;23;20166;-92
2023/09/30 11:38:02;;;;;;;14.40;4.57;;;;;;;;;;6242746;22;20652;-92
2023/09/30 11:41:08;;;;;;;14.27;4.45;;;;;;;;;;6244849;22;20170;-91
2023/09/30 11:44:15;;;;;;;13.80;4.35;;;;;;;;;;6240057;22;20164;-91
2023/09/30 11:47:33;;;;;;;11.23;3.88;;;;;;;;;;6240885;22;20174;-91
2023/09/30 11:50:48;;;;;;;11.60;4.28;;;;;;;;;;6239948;23;20187;-90
2023/09/30 11:53:54;;;;;;;9.73;3.75;;;;;;;;;;6241410;22;20235;-91
2023/09/30 11:57:00;;;;;;;12.73;4.03;;;;;;;;;;6240878;23;20259;-89
2023/09/30 12:00:13;;;;;;;12.35;4.35;;;;;;;;;;6242530;22;20207;-91
2023/09/30 12:03:20;;;;;;;12.23;3.90;;;;;;;;;;6244149;22;20167;-90
2023/09/30 12:06:25;;;;;;;10.45;4.03;;;;;;;;;;6241672;23;20492;-89
2023/09/30 12:09:31;;;;;;;9.70;3.58;;;;;;;;;;6243291;23;20210;-91
2023/09/30 12:12:36;;;;;;;10.35;4.05;;;;;;;;;;6259305;22;20231;-90
2023/09/30 12:15:41;;;;;;;11.30;3.33;;;;;;;;;;6243126;23;20170;-91
2023/09/30 12:18:48;;;;;;;10.23;3.78;;;;;;;;;;6241334;23;20170;-90
2023/09/30 12:21:54;;;;;;;12.20;3.60;;;;;;;;;;6240550;23;20189;-89
2023/09/30 12:25:00;;;;;;;10.25;3.55;;;;;;;;;;6243926;22;20170;-90
2023/09/30 12:28:06;;;;;;;9.52;3.22;;;;;;;;;;6240195;23;20241;-90
2023/09/30 12:31:12;;;;;;;10.27;3.40;;;;;;;;;;6242304;23;20190;-90
2023/09/30 12:34:18;;;;;;;11.07;3.53;;;;;;;;;;6242003;22;20170;-90
2023/09/30 12:37:23;;;;;;;8.32;3.20;;;;;;;;;;6241420;23;20198;-90
2023/09/30 12:40:29;;;;;;;8.05;3.30;;;;;;;;;;6244460;22;20211;-87
2023/09/30 12:43:34;;;;;;;12.18;3.35;;;;;;;;;;6239461;23;20174;-89
2023/09/30 12:46:39;;;;;;;8.00;3.50;;;;;;;;;;6241016;22;20629;-90
2023/09/30 12:49:46;;;;;;;10.52;3.63;;;;;;;;;;6240146;23;20174;-89
2023/09/30 12:52:51;;;;;;;9.93;3.75;;;;;;;;;;6239578;22;20158;-91
2023/09/30 12:55:56;;;;;;;9.27;3.17;;;;;;;;;;6245109;22;20214;-90
2023/09/30 12:59:02;;;;;;;7.35;3.17;;;;;;;;;;6242064;23;20206;-90
2023/09/30 13:02:09;;;;;;;8.63;2.67;;;;;;;;;;6241374;22;20170;-91
2023/09/30 13:05:16;;;;;;;8.52;2.92;;;;;;;;;;6240689;22;20172;-90
2023/09/30 13:08:21;;;;;;;6.25;2.97;;;;;;;;;;6239966;22;20190;-89
2023/09/30 13:11:26;;;;;;;8.98;2.63;;;;;;;;;;6241806;22;20179;-90
2023/09/30 13:14:31;;;;;;;6.00;2.53;;;;;;;;;;6243539;23;20166;-91
2023/09/30 13:17:37;;;;;;;6.65;2.10;;;;;;;;;;6244304;23;20256;-92
2023/09/30 13:20:43;;;;;;;8.95;3.08;;;;;;;;;;6242148;23;20198;-88
2023/09/30 13:23:48;;;;;;;7.63;3.25;;;;;;;;;;6244534;23;20275;-91
2023/09/30 13:26:54;;;;;;;10.20;2.97;;;;;;;;;;6242171;23;20217;-92
2023/09/30 13:29:59;;;;;;;6.90;2.78;;;;;;;;;;6241727;23;20170;-92
2023/09/30 13:33:06;;;;;;;7.72;4.68;;;;;;;;;;6245093;23;20600;-92
2023/09/30 13:36:13;;;;;;;6.65;2.35;;;;;;;;;;6243407;22;20159;-91
2023/09/30 13:39:18;;;;;;;5.63;2.38;;;;;;;;;;6243670;22;20166;-90
2023/09/30 13:42:23;;;;;;;5.75;2.10;;;;;;;;;;6244947;23;20269;-92
2023/09/30 13:45:28;;;;;;;4.95;1.88;;;;;;;;;;6242852;23;20246;-91
2023/09/30 13:48:34;;;;;;;4.55;1.60;;;;;;;;;;6240647;23;20178;-89
2023/09/30 13:51:41;;;;;;;3.83;1.70;;;;;;;;;;6240610;23;20158;-91
2023/09/30 13:54:50;;;;;;;5.03;1.92;;;;;;;;;;6241519;22;20205;-90
2023/09/30 14:01:16;;;;;;;5.18;1.83;;;;;;;;;;6241584;23;20545;-89
2023/09/30 14:04:25;;;;;;;4.18;1.58;;;;;;;;;;6243445;23;20154;-90
2023/09/30 14:07:32;;;;;;;5.43;1.77;;;;;;;;;;6243999;22;20218;-88
2023/09/30 14:10:38;;;;;;;3.50;1.38;;;;;;;;;;6243250;23;20285;-89
2023/09/30 14:13:43;;;;;;;4.03;1.70;;;;;;;;;;6242053;23;20170;-90
2023/09/30 14:16:48;;;;;;;1.65;1.08;;;;;;;;;;6240031;22;20295;-89
2023/09/30 14:19:53;;;;;;;3.17;1.13;;;;;;;;;;6241130;23;20170;-89
2023/09/30 14:23:01;;;;;;;6.38;1.10;;;;;;;;;;6243887;23;20190;-92
2023/09/30 14:26:10;;;;;;;4.22;1.40;;;;;;;;;;6244990;23;20193;-91
2023/09/30 14:29:17;;;;;;;1.58;0.70;;;;;;;;;;6243630;23;20209;-90
2023/09/30 14:32:23;;;;;;;1.40;0.85;;;;;;;;;;6244100;22;20233;-88
2023/09/30 14:35:29;;;;;;;2.00;0.93;;;;;;;;;;6242472;23;20469;-88
2023/09/30 14:41:56;;;;;;;1.50;0.88;;;;;;;;;;6242409;23;20163;-91
2023/09/30 14:45:02;;;;;;;3.08;1.20;;;;;;;;;;6243340;22;20155;-90
2023/09/30 14:48:08;;;;;;;1.83;1.00;;;;;;;;;;6243368;22;20166;-90
2023/09/30 14:51:13;;;;;;;2.83;1.50;;;;;;;;;;6244193;23;20218;-91
2023/09/30 14:54:21;;;;;;;1.42;0.85;;;;;;;;;;6244502;22;20182;-91
2023/09/30 14:57:27;;;;;;;2.30;1.00;;;;;;;;;;6242358;23;20270;-92
2023/09/30 15:00:32;;;;;;;3.40;1.10;;;;;;;;;;6261281;22;20223;-90
2023/09/30 15:03:38;;;;;;;2.08;1.13;;;;;;;;;;6242733;23;20206;-92
2023/09/30 15:06:44;;;;;;;4.50;1.92;;;;;;;;;;6242423;23;20237;-88
2023/09/30 15:09:54;;;;;;;6.20;1.30;;;;;;;;;;6241931;22;20505;-92
2023/09/30 15:13:06;;;;;;;1.88;0.80;;;;;;;;;;6242848;22;20230;-90
2023/09/30 15:16:16;;;;;;;2.28;1.20;;;;;;;;;;6242439;22;20169;-91
2023/09/30 15:19:21;;;;;;;1.65;0.90;;;;;;;;;;6242288;23;20178;-91
2023/09/30 15:22:26;;;;;;;3.63;1.00;;;;;;;;;;6243017;22;20173;-92
2023/09/30 15:25:34;;;;;;;1.63;0.85;;;;;;;;;;6244138;23;20171;-92
2023/09/30 15:28:40;;;;;;;1.65;0.95;;;;;;;;;;6243387;22;20174;-90
2023/09/30 15:31:47;;;;;;;3.05;0.98;;;;;;;;;;6244448;22;20155;-91
2023/09/30 15:34:55;;;;;;;3.55;1.20;;;;;;;;;;6243968;22;20162;-92
2023/09/30 15:38:00;;;;;;;6.65;1.25;;;;;;;;;;6245511;23;20194;-90
2023/09/30 15:41:11;;;;;;;4.15;1.65;;;;;;;;;;6245342;22;20162;-91
2023/09/30 15:44:17;;;;;;;3.47;1.20;;;;;;;;;;6262385;22;20155;-94
2023/09/30 15:47:22;;;;;;;2.60;1.08;;;;;;;;;;6242289;22;20170;-92
2023/09/30 15:50:27;;;;;;;2.70;1.05;;;;;;;;;;6241819;22;20246;-92
2023/09/30 15:53:42;;;;;;;1.42;1.00;;;;;;;;;;6243552;23;20178;-89
2023/09/30 15:56:49;;;;;;;4.97;1.40;;;;;;;;;;6260313;22;20171;-91
2023/09/30 15:59:55;;;;;;;6.78;1.60;;;;;;;;;;6239931;23;20225;-91
2023/09/30 16:03:00;;;;;;;4.85;1.52;;;;;;;;;;6242917;23;20170;-90
2023/09/30 16:06:06;;;;;;;2.30;1.20;;;;;;;;;;6241620;22;20294;-91
2023/09/30 16:09:11;;;;;;;2.30;1.10;;;;;;;;;;6241962;22;20278;-92
2023/09/30 16:12:20;;;;;;;1.77;1.02;;;;;;;;;;6243010;22;20230;-91
2023/09/30 16:15:28;;;;;;;6.22;1.20;;;;;;;;;;6242145;23;20170;-91
2023/09/30 16:18:34;;;;;;;3.95;1.10;;;;;;;;;;6242105;23;20190;-92
2023/09/30 16:21:39;;;;;;;3.92;1.20;;;;;;;;;;6239872;22;20229;-90
2023/09/30 16:24:44;;;;;;;3.95;1.20;;;;;;;;;;6240487;23;20166;-91
2023/09/30 16:27:54;;;;;;;6.75;1.10;;;;;;;;;;6240003;23;20602;-90
2023/09/30 16:31:01;;;;;;;2.70;1.50;;;;;;;;;;6239095;23;20169;-91
2023/09/30 16:34:06;;;;;;;3.00;1.30;;;;;;;;;;6240473;22;20186;-90
2023/09/30 16:37:12;;;;;;;5.30;1.63;;;;;;;;;;6240105;22;20182;-92
2023/09/30 16:40:19;;;;;;;8.45;1.92;;;;;;;;;;6238798;23;20174;-91
2023/09/30 16:43:26;;;;;;;14.02;5.43;;;;;;;;;;6240295;22;20162;-93
2023/09/30 16:46:31;;;;;;;4.45;1.08;;;;;;;;;;6240890;23;20162;-91
2023/09/30 16:49:36;;;;;;;2.72;1.25;;;;;;;;;;6238756;22;20171;-91
2023/09/30 16:52:42;;;;;;;4.20;1.27;;;;;;;;;;6239077;23;20496;-91
2023/09/30 16:55:48;;;;;;;2.38;1.15;;;;;;;;;;6238614;22;20158;-91
2023/09/30 16:58:56;;;;;;;2.67;1.23;;;;;;;;;;6240605;23;20277;-93
2023/09/30 17:02:02;;;;;;;2.97;1.10;;;;;;;;;;6240841;23;20167;-91
2023/09/30 17:05:08;;;;;;;11.98;4.90;;;;;;;;;;6241611;22;20166;-88
2023/09/30 17:08:14;;;;;;;6.30;3.20;;;;;;;;;;6242340;23;20170;-91
2023/09/30 17:11:20;;;;;;;2.63;1.63;;;;;;;;;;6239153;22;20173;-91
2023/09/30 17:14:27;;;;;;;3.92;1.42;;;;;;;;;;6241740;23;20174;-93
2023/09/30 17:17:33;;;;;;;22.10;10.70;;;;;;;;;;6239927;23;20295;-91
2023/09/30 17:20:42;;;;;;;7.53;4.15;;;;;;;;;;6240364;23;20175;-92
2023/09/30 17:23:48;;;;;;;4.05;1.90;;;;;;;;;;6241468;23;20274;-90
2023/09/30 17:26:56;;;;;;;3.13;1.65;;;;;;;;;;6242476;22;20166;-91
2023/09/30 17:30:03;;;;;;;5.28;1.35;;;;;;;;;;6240073;22;20174;-92
2023/09/30 17:33:09;;;;;;;3.58;1.65;;;;;;;;;;6241634;22;20175;-89
2023/09/30 17:36:15;;;;;;;8.00;1.73;;;;;;;;;;6245513;22;20166;-92
2023/09/30 17:39:23;;;;;;;11.90;5.18;;;;;;;;;;6229994;23;20241;-92
2023/09/30 17:42:29;;;;;;;58.78;27.42;;;;;;;;;;6245589;22;20237;-90
2023/09/30 17:45:38;;;;;;;9.80;4.47;;;;;;;;;;6245461;22;20175;-91
2023/09/30 17:48:46;;;;;;;16.60;7.90;;;;;;;;;;6246008;22;20201;-91
2023/09/30 17:51:52;;;;;;;45.50;21.42;;;;;;;;;;6248593;22;20166;-92
2023/09/30 17:54:58;;;;;;;32.30;17.05;;;;;;;;;;6249555;22;20209;-90
2023/09/30 17:58:05;;;;;;;11.25;5.20;;;;;;;;;;6247562;22;20517;-90
2023/09/30 18:01:18;;;;;;;6.07;3.00;;;;;;;;;;6247326;22;20226;-91
2023/09/30 18:04:24;;;;;;;7.35;3.00;;;;;;;;;;6246968;22;20206;-90
2023/09/30 18:07:31;;;;;;;4.57;2.00;;;;;;;;;;6248133;22;20163;-91
2023/09/30 18:10:37;;;;;;;3.67;1.90;;;;;;;;;;6245503;23;20245;-90
2023/09/30 18:13:43;;;;;;;9.57;2.53;;;;;;;;;;6244052;23;20166;-93
2023/09/30 18:16:50;;;;;;;18.67;9.13;;;;;;;;;;6246361;22;20166;-90
2023/09/30 18:19:56;;;;;;;5.85;2.60;;;;;;;;;;6241496;22;20193;-93
2023/09/30 18:23:02;;;;;;;4.30;2.05;;;;;;;;;;6243693;22;20165;-91
2023/09/30 18:26:07;;;;;;;6.70;2.80;;;;;;;;;;6241893;23;20286;-92
2023/09/30 18:29:17;;;;;;;12.60;5.53;;;;;;;;;;6243022;22;20233;-92
2023/09/30 18:32:25;;;;;;;8.52;2.45;;;;;;;;;;6245424;22;20154;-90
2023/09/30 18:35:33;;;;;;;3.85;2.35;;;;;;;;;;6245708;22;20167;-91
2023/09/30 18:38:39;;;;;;;5.78;2.53;;;;;;;;;;6244761;22;20190;-93
2023/09/30 18:41:48;;;;;;;4.47;2.17;;;;;;;;;;6246771;22;20175;-90
2023/09/30 18:44:54;;;;;;;5.30;2.20;;;;;;;;;;6245437;23;20182;-90
2023/09/30 18:48:01;;;;;;;4.95;1.98;;;;;;;;;;6244992;22;20178;-91